createdAt,value
2022-10-18T00:01:00.616Z,4.60
2022-10-18T00:03:28.733Z,5.20
2022-10-18T00:05:56.957Z,4.80
2022-10-18T00:08:25.617Z,5.05
2022-10-18T00:10:54.165Z,5.15
2022-10-18T00:13:25.692Z,4.95
2022-10-18T00:15:57.940Z,4.57
2022-10-18T00:18:26.538Z,4.75
2022-10-18T00:20:59.002Z,5.95
2022-10-18T00:26:05.962Z,5.63
2022-10-18T00:28:35.165Z,5.53
2022-10-18T00:31:15.997Z,5.07
2022-10-18T00:33:44.945Z,5.40
2022-10-18T00:36:13.679Z,4.78
2022-10-18T00:38:41.919Z,4.57
2022-10-18T00:41:12.912Z,4.97
2022-10-18T00:43:58.925Z,5.03
2022-10-18T00:46:31.734Z,4.88
2022-10-18T00:49:05.210Z,4.75
2022-10-18T00:51:51.109Z,7.22
2022-10-18T00:54:21.534Z,5.10
2022-10-18T00:56:49.591Z,4.25
2022-10-18T00:59:19.359Z,5.22
2022-10-18T01:01:49.107Z,5.15
2022-10-18T01:04:19.126Z,5.22
2022-10-18T01:09:33.852Z,5.60
2022-10-18T01:12:14.791Z,4.88
2022-10-18T01:14:53.516Z,4.43
2022-10-18T01:17:29.987Z,4.28
2022-10-18T01:20:18.542Z,5.10
2022-10-18T01:22:51.549Z,4.75
2022-10-18T01:25:33.724Z,4.50
2022-10-18T01:28:11.016Z,4.93
2022-10-18T01:30:52.931Z,4.25
2022-10-18T01:33:34.173Z,4.45
2022-10-18T01:36:09.397Z,4.57
2022-10-18T01:38:42.389Z,4.88
2022-10-18T01:41:15.639Z,4.75
2022-10-18T01:43:46.323Z,4.47
2022-10-18T01:46:18.368Z,4.32
2022-10-18T01:48:47.056Z,4.65
2022-10-18T01:51:14.965Z,4.30
2022-10-18T01:53:42.867Z,5.65
2022-10-18T01:56:21.717Z,4.93
2022-10-18T01:58:57.834Z,5.20
2022-10-18T02:01:34.553Z,4.35
2022-10-18T02:04:10.638Z,5.07
2022-10-18T02:06:45.269Z,4.20
2022-10-18T02:09:19.142Z,4.78
2022-10-18T02:11:49.275Z,4.60
2022-10-18T02:14:21.284Z,4.63
2022-10-18T02:16:53.706Z,5.15
2022-10-18T02:21:59.979Z,4.82
2022-10-18T02:24:33.745Z,4.57
2022-10-18T02:27:02.246Z,4.80
2022-10-18T02:29:30.611Z,4.85
2022-10-18T02:32:07.127Z,4.35
2022-10-18T02:34:40.355Z,4.85
2022-10-18T02:37:09.675Z,4.85
2022-10-18T02:39:41.199Z,4.22
2022-10-18T02:42:12.135Z,4.40
2022-10-18T02:44:40.382Z,5.05
2022-10-18T02:47:12.119Z,4.82
2022-10-18T02:49:40.039Z,4.95
2022-10-18T02:52:07.985Z,4.93
2022-10-18T02:54:35.905Z,5.30
2022-10-18T02:57:03.858Z,4.07
2022-10-18T02:59:31.792Z,4.57
2022-10-18T03:01:59.703Z,4.80
2022-10-18T03:06:56.910Z,4.38
2022-10-18T03:09:24.950Z,5.00
2022-10-18T03:11:52.875Z,4.63
2022-10-18T03:14:20.741Z,5.28
2022-10-18T03:16:48.653Z,4.72
2022-10-18T03:19:16.788Z,4.60
2022-10-18T03:21:48.649Z,4.32
2022-10-18T03:24:16.812Z,4.68
2022-10-18T03:26:44.764Z,3.88
2022-10-18T03:29:13.145Z,4.38
2022-10-18T03:31:41.048Z,4.60
2022-10-18T03:34:09.145Z,4.15
2022-10-18T03:36:41.191Z,3.47
2022-10-18T03:39:11.074Z,4.10
2022-10-18T03:41:39.015Z,4.22
2022-10-18T03:44:06.955Z,3.75
2022-10-18T03:46:34.880Z,4.03
2022-10-18T03:49:02.828Z,4.75
2022-10-18T03:51:30.796Z,4.18
2022-10-18T03:53:58.677Z,5.07
2022-10-18T03:56:28.052Z,4.22
2022-10-18T03:58:57.064Z,4.60
2022-10-18T04:01:25.152Z,4.88
2022-10-18T04:03:53.123Z,4.72
2022-10-18T04:06:21.012Z,4.32
2022-10-18T04:08:48.928Z,4.18
2022-10-18T04:11:16.835Z,4.80
2022-10-18T04:13:46.114Z,4.95
2022-10-18T04:16:14.039Z,5.10
2022-10-18T04:18:41.936Z,4.40
2022-10-18T04:21:09.806Z,3.80
2022-10-18T04:23:38.879Z,4.05
2022-10-18T04:26:07.692Z,4.50
2022-10-18T04:28:39.893Z,3.88
2022-10-18T04:33:37.626Z,4.57
2022-10-18T04:36:05.817Z,4.80
2022-10-18T04:38:33.782Z,4.30
2022-10-18T04:41:01.812Z,5.32
2022-10-18T04:43:29.905Z,4.85
2022-10-18T04:45:57.894Z,4.93
2022-10-18T04:48:27.457Z,4.53
2022-10-18T04:50:55.439Z,4.60
2022-10-18T04:53:25.237Z,4.60
2022-10-18T04:55:53.168Z,4.68
2022-10-18T04:58:21.317Z,4.50
2022-10-18T05:00:50.519Z,5.25
2022-10-18T05:03:18.537Z,4.65
2022-10-18T05:06:01.427Z,4.32
2022-10-18T05:08:30.810Z,4.30
2022-10-18T05:10:58.792Z,4.95
2022-10-18T05:13:26.975Z,4.68
2022-10-18T05:15:56.259Z,4.45
2022-10-18T05:18:24.168Z,4.68
2022-10-18T05:20:53.608Z,4.70
2022-10-18T05:23:23.547Z,4.15
2022-10-18T05:25:54.923Z,4.65
2022-10-18T05:28:41.190Z,4.60
2022-10-18T05:31:11.129Z,4.78
2022-10-18T05:33:39.220Z,5.43
2022-10-18T05:36:09.174Z,4.63
2022-10-18T05:38:42.051Z,4.85
2022-10-18T05:41:10.522Z,4.82
2022-10-18T05:43:38.602Z,4.50
2022-10-18T05:46:11.907Z,4.38
2022-10-18T05:48:43.189Z,4.82
2022-10-18T05:51:13.587Z,4.20
2022-10-18T05:53:41.545Z,4.72
2022-10-18T05:56:11.701Z,4.90
2022-10-18T05:58:39.959Z,4.55
2022-10-18T06:01:08.848Z,5.18
2022-10-18T06:03:39.827Z,5.00
2022-10-18T06:06:09.455Z,4.97
2022-10-18T06:08:40.216Z,5.63
2022-10-18T06:11:09.073Z,5.38
2022-10-18T06:13:41.079Z,6.00
2022-10-18T06:16:09.667Z,5.93
2022-10-18T06:18:37.888Z,4.97
2022-10-18T06:21:06.655Z,6.15
2022-10-18T06:23:36.720Z,5.22
2022-10-18T06:26:07.942Z,4.75
2022-10-18T06:28:37.259Z,4.90
2022-10-18T06:31:09.050Z,5.50
2022-10-18T06:33:37.808Z,5.70
2022-10-18T06:36:08.635Z,5.20
2022-10-18T06:38:36.630Z,5.70
2022-10-18T06:41:09.768Z,4.78
2022-10-18T06:43:37.954Z,5.90
2022-10-18T06:46:08.011Z,4.28
2022-10-18T06:48:36.566Z,5.20
2022-10-18T06:51:06.615Z,5.20
2022-10-18T06:53:43.822Z,4.60
2022-10-18T06:56:19.401Z,4.68
2022-10-18T06:58:47.402Z,5.25
2022-10-18T07:01:16.949Z,5.47
2022-10-18T07:03:45.980Z,5.28
2022-10-18T07:06:15.794Z,5.82
2022-10-18T07:08:44.074Z,6.53
2022-10-18T07:11:18.702Z,5.95
2022-10-18T07:13:46.778Z,6.38
2022-10-18T07:16:18.378Z,5.60
2022-10-18T07:18:48.330Z,5.35
2022-10-18T07:21:18.722Z,5.50
2022-10-18T07:23:47.220Z,6.15
2022-10-18T07:26:18.012Z,5.00
2022-10-18T07:28:48.687Z,6.30
2022-10-18T07:31:16.709Z,5.90
2022-10-18T07:33:44.655Z,5.72
2022-10-18T07:36:14.127Z,6.28
2022-10-18T07:38:42.525Z,6.93
2022-10-18T07:41:13.004Z,6.53
2022-10-18T07:43:45.802Z,6.15
2022-10-18T07:46:15.130Z,6.75
2022-10-18T07:48:43.249Z,5.88
2022-10-18T07:51:11.959Z,6.57
2022-10-18T07:53:40.102Z,6.22
2022-10-18T07:56:11.896Z,6.45
2022-10-18T07:58:39.857Z,6.53
2022-10-18T08:01:10.604Z,7.50
2022-10-18T08:03:39.376Z,7.05
2022-10-18T08:06:09.724Z,8.23
2022-10-18T08:08:39.047Z,7.13
2022-10-18T08:11:09.616Z,7.13
2022-10-18T08:13:38.113Z,7.18
2022-10-18T08:16:07.860Z,7.38
2022-10-18T08:18:38.000Z,7.75
2022-10-18T08:21:08.098Z,6.57
2022-10-18T08:23:36.801Z,7.18
2022-10-18T08:26:06.129Z,6.82
2022-10-18T08:28:36.751Z,6.32
2022-10-18T08:31:05.242Z,6.22
2022-10-18T08:33:34.015Z,7.53
2022-10-18T08:36:06.030Z,6.35
2022-10-18T08:38:34.623Z,6.60
2022-10-18T08:41:14.096Z,7.32
2022-10-18T08:43:48.296Z,6.35
2022-10-18T08:46:16.323Z,7.22
2022-10-18T08:48:49.641Z,6.47
2022-10-18T08:51:28.457Z,5.95
2022-10-18T08:54:05.205Z,5.40
2022-10-18T08:56:34.925Z,5.88
2022-10-18T08:59:04.736Z,5.38
2022-10-18T09:01:45.118Z,5.10
2022-10-18T09:04:37.226Z,5.35
2022-10-18T09:07:23.617Z,5.40
2022-10-18T09:09:58.617Z,5.32
2022-10-18T09:12:48.399Z,4.65
2022-10-18T09:15:21.198Z,5.07
2022-10-18T09:18:03.796Z,3.60
2022-10-18T09:23:14.634Z,3.97
2022-10-18T09:25:46.959Z,3.53
2022-10-18T09:31:01.232Z,4.53
2022-10-18T09:33:43.740Z,4.13
2022-10-18T09:38:46.156Z,4.45
2022-10-18T09:41:20.958Z,4.43
2022-10-18T09:43:55.128Z,5.45
2022-10-18T09:46:26.073Z,4.25
2022-10-18T09:48:58.905Z,4.47
2022-10-18T09:51:34.734Z,4.75
2022-10-18T09:54:21.169Z,4.57
2022-10-18T09:59:38.293Z,4.75
2022-10-18T10:02:07.218Z,5.22
2022-10-18T10:04:35.749Z,5.75
2022-10-18T10:07:07.752Z,4.05
2022-10-18T10:09:45.833Z,4.60
2022-10-18T10:12:32.545Z,5.13
2022-10-18T10:15:20.716Z,5.20
2022-10-18T10:17:57.217Z,4.57
2022-10-18T10:20:28.425Z,4.07
2022-10-18T10:23:06.135Z,5.07
2022-10-18T10:25:38.637Z,4.68
2022-10-18T10:28:13.222Z,4.47
2022-10-18T10:30:41.142Z,4.68
2022-10-18T10:33:32.880Z,4.13
2022-10-18T10:36:02.490Z,5.33
2022-10-18T10:38:31.962Z,3.97
2022-10-18T10:41:01.309Z,3.65
2022-10-18T10:43:39.696Z,3.67
2022-10-18T10:46:10.945Z,4.40
2022-10-18T10:48:48.115Z,3.90
2022-10-18T10:51:19.300Z,4.65
2022-10-18T10:53:57.881Z,4.53
2022-10-18T10:56:29.512Z,4.57
2022-10-18T10:59:02.366Z,4.53
2022-10-18T11:01:32.966Z,5.07
2022-10-18T11:04:03.421Z,3.88
2022-10-18T11:06:48.961Z,4.28
2022-10-18T11:09:39.052Z,4.55
2022-10-18T11:12:25.130Z,3.58
2022-10-18T11:15:03.608Z,3.50
2022-10-18T11:17:40.408Z,3.50
2022-10-18T11:20:23.605Z,3.42
2022-10-18T11:23:00.823Z,3.08
2022-10-18T11:25:42.875Z,2.90
2022-10-18T11:28:24.413Z,2.83
2022-10-18T11:31:09.408Z,3.30
2022-10-18T11:34:08.117Z,3.17
2022-10-18T11:36:56.290Z,2.95
2022-10-18T11:39:40.788Z,3.08
2022-10-18T11:42:20.343Z,3.25
2022-10-18T11:44:59.200Z,3.42
2022-10-18T11:47:38.358Z,2.95
2022-10-18T11:50:28.876Z,2.53
2022-10-18T11:53:08.394Z,3.03
2022-10-18T11:55:57.922Z,3.25
2022-10-18T11:58:39.316Z,3.15
2022-10-18T12:01:17.063Z,3.15
2022-10-18T12:03:58.258Z,2.70
2022-10-18T12:06:31.296Z,2.33
2022-10-18T12:09:04.057Z,3.00
2022-10-18T12:11:34.791Z,2.00
2022-10-18T12:14:05.504Z,2.00
2022-10-18T12:16:51.167Z,2.15
2022-10-18T12:19:26.357Z,1.83
2022-10-18T12:21:57.479Z,1.85
2022-10-18T12:24:29.576Z,2.75
2022-10-18T12:27:00.691Z,1.73
2022-10-18T12:29:33.831Z,2.58
2022-10-18T12:32:09.183Z,1.85
2022-10-18T12:34:43.513Z,2.13
2022-10-18T12:37:40.972Z,2.63
2022-10-18T12:40:20.273Z,2.10
2022-10-18T12:42:51.842Z,2.00
2022-10-18T12:45:26.192Z,2.15
2022-10-18T12:47:56.121Z,2.22
2022-10-18T12:50:32.274Z,2.40
2022-10-18T12:53:15.583Z,2.30
2022-10-18T12:55:46.329Z,2.08
2022-10-18T12:58:30.913Z,2.47
2022-10-18T13:01:02.262Z,2.17
2022-10-18T13:03:41.971Z,1.70
2022-10-18T13:06:09.986Z,1.95
2022-10-18T13:08:46.764Z,2.40
2022-10-18T13:11:31.124Z,1.77
2022-10-18T13:14:34.808Z,1.55
2022-10-18T13:17:11.892Z,1.15
2022-10-18T13:22:52.183Z,2.17
2022-10-18T13:25:29.291Z,2.10
2022-10-18T13:33:28.954Z,1.67
2022-10-18T13:36:00.231Z,1.80
2022-10-18T13:38:48.848Z,1.20
2022-10-18T13:41:18.835Z,1.60
2022-10-18T13:44:30.419Z,0.90
2022-10-18T13:47:39.061Z,1.30
2022-10-18T13:50:33.114Z,1.30
2022-10-18T13:53:41.736Z,1.15
2022-10-18T13:56:41.234Z,1.10
2022-10-18T13:59:22.803Z,1.30
2022-10-18T14:02:04.738Z,0.88
2022-10-18T14:04:47.673Z,0.95
2022-10-18T14:07:20.083Z,1.52
2022-10-18T14:09:55.003Z,0.95
2022-10-18T14:12:30.204Z,1.13
2022-10-18T14:15:05.088Z,1.27
2022-10-18T14:20:27.263Z,1.00
2022-10-18T14:23:03.611Z,0.90
2022-10-18T14:25:35.549Z,1.00
2022-10-18T14:28:11.544Z,3.90
2022-10-18T14:30:53.144Z,1.50
2022-10-18T14:33:34.632Z,0.95
2022-10-18T14:36:10.360Z,1.08
2022-10-18T14:38:48.614Z,1.20
2022-10-18T14:41:22.143Z,0.95
2022-10-18T14:43:51.110Z,1.25
2022-10-18T14:46:28.029Z,1.00
2022-10-18T14:49:00.925Z,0.88
2022-10-18T14:51:35.107Z,1.38
2022-10-18T14:54:03.894Z,1.48
2022-10-18T14:56:40.507Z,1.05
2022-10-18T14:59:17.230Z,1.00
2022-10-18T15:01:54.353Z,1.33
2022-10-18T15:04:27.659Z,1.52
2022-10-18T15:06:57.026Z,1.00
2022-10-18T15:11:58.487Z,1.30
2022-10-18T15:14:29.098Z,1.00
2022-10-18T15:17:01.430Z,1.30
2022-10-18T15:19:35.062Z,1.13
2022-10-18T15:25:14.550Z,1.30
2022-10-18T15:27:46.265Z,1.08
2022-10-18T15:30:23.500Z,1.10
2022-10-18T15:32:53.600Z,1.17
2022-10-18T15:35:28.542Z,1.13
2022-10-18T15:37:58.612Z,1.33
2022-10-18T15:40:47.833Z,1.10
2022-10-18T15:43:37.019Z,1.02
2022-10-18T15:46:07.058Z,1.23
2022-10-18T15:48:38.604Z,1.15
2022-10-18T15:51:07.960Z,1.10
2022-10-18T15:53:46.960Z,1.10
2022-10-18T15:56:33.939Z,1.38
2022-10-18T15:59:04.865Z,1.48
2022-10-18T16:01:44.866Z,1.88
2022-10-18T16:04:20.111Z,2.00
2022-10-18T16:06:54.128Z,1.80
2022-10-18T16:09:23.844Z,1.48
2022-10-18T16:11:57.335Z,1.85
2022-10-18T16:14:27.688Z,1.10
2022-10-18T16:17:01.381Z,1.30
2022-10-18T16:19:29.426Z,1.10
2022-10-18T16:22:01.149Z,0.88
2022-10-18T16:24:31.703Z,1.20
2022-10-18T16:26:59.575Z,0.80
2022-10-18T16:29:32.919Z,0.98
2022-10-18T16:32:01.183Z,0.95
2022-10-18T16:34:29.494Z,0.75
2022-10-18T16:36:57.458Z,1.40
2022-10-18T16:39:25.741Z,1.02
2022-10-18T16:41:53.772Z,1.10
2022-10-18T16:44:21.722Z,1.00
2022-10-18T16:46:57.998Z,0.80
2022-10-18T16:49:27.288Z,0.77
2022-10-18T16:51:55.814Z,1.20
2022-10-18T16:54:23.896Z,0.90
2022-10-18T16:56:51.965Z,1.13
2022-10-18T16:59:25.169Z,0.98
2022-10-18T17:01:54.642Z,0.88
2022-10-18T17:04:22.637Z,1.27
2022-10-18T17:06:50.697Z,1.17
2022-10-18T17:09:18.917Z,0.68
2022-10-18T17:11:46.829Z,1.20
2022-10-18T17:14:14.856Z,1.55
2022-10-18T17:16:45.639Z,1.42
2022-10-18T17:19:18.213Z,1.70
2022-10-18T17:21:48.898Z,1.55
2022-10-18T17:24:16.824Z,1.65
2022-10-18T17:26:44.775Z,1.70
2022-10-18T17:29:12.838Z,1.30
2022-10-18T17:31:40.835Z,1.75
2022-10-18T17:34:08.977Z,2.20
2022-10-18T17:36:38.282Z,2.00
2022-10-18T17:39:08.922Z,1.95
2022-10-18T17:41:39.513Z,2.20
2022-10-18T17:44:07.645Z,1.63
2022-10-18T17:46:35.626Z,2.10
2022-10-18T17:49:03.749Z,1.52
2022-10-18T17:51:31.914Z,1.73
2022-10-18T17:54:01.351Z,1.80
2022-10-18T17:56:35.084Z,2.20
2022-10-18T17:59:03.322Z,1.67
2022-10-18T18:06:34.512Z,1.50
2022-10-18T18:09:08.044Z,1.80
2022-10-18T18:11:36.943Z,2.10
2022-10-18T18:14:09.607Z,2.15
2022-10-18T18:16:39.100Z,2.33
2022-10-18T18:19:09.914Z,2.40
2022-10-18T18:21:38.797Z,3.03
2022-10-18T18:24:10.010Z,2.97
2022-10-18T18:29:06.711Z,2.90
2022-10-18T18:31:38.812Z,2.95
2022-10-18T18:34:11.024Z,3.00
2022-10-18T18:36:39.287Z,2.88
2022-10-18T18:39:09.813Z,2.35
2022-10-18T18:41:38.461Z,3.33
2022-10-18T18:44:07.080Z,2.80
2022-10-18T18:46:38.609Z,3.08
2022-10-18T18:49:08.016Z,2.97
2022-10-18T18:51:38.046Z,3.58
2022-10-18T18:54:06.811Z,3.20
2022-10-18T18:56:36.425Z,3.50
2022-10-18T18:59:08.179Z,3.20
2022-10-18T19:01:38.667Z,3.63
2022-10-18T19:04:08.404Z,4.55
2022-10-18T19:06:39.737Z,3.40
2022-10-18T19:09:13.099Z,3.85
2022-10-18T19:11:42.435Z,3.83
2022-10-18T19:14:13.062Z,3.85
2022-10-18T19:16:44.511Z,4.45
2022-10-18T19:19:13.984Z,3.97
2022-10-18T19:21:44.267Z,3.72
2022-10-18T19:24:14.006Z,4.00
2022-10-18T19:26:45.416Z,3.72
2022-10-18T19:29:15.404Z,4.35
2022-10-18T19:31:44.335Z,3.85
2022-10-18T19:39:14.925Z,4.60
2022-10-18T19:41:44.311Z,4.85
2022-10-18T19:44:12.299Z,4.30
2022-10-18T19:46:40.314Z,5.18
2022-10-18T19:49:08.634Z,5.97
2022-10-18T19:51:39.631Z,5.82
2022-10-18T19:54:14.875Z,5.25
2022-10-18T19:56:44.381Z,5.35
2022-10-18T19:59:13.628Z,5.10
2022-10-18T20:01:41.675Z,5.22
2022-10-18T20:04:13.629Z,6.05
2022-10-18T20:06:42.167Z,5.50
2022-10-18T20:09:14.637Z,5.40
2022-10-18T20:11:47.220Z,5.38
2022-10-18T20:14:15.457Z,5.22
2022-10-18T20:16:43.474Z,5.25
2022-10-18T20:19:11.976Z,5.32
2022-10-18T20:21:40.251Z,25.63
2022-10-18T20:24:09.320Z,5.35
2022-10-18T20:26:37.497Z,5.13
2022-10-18T20:29:07.803Z,4.93
2022-10-18T20:31:39.148Z,4.88
2022-10-18T20:34:14.553Z,4.53
2022-10-18T20:36:42.929Z,4.82
2022-10-18T20:39:11.286Z,5.10
2022-10-18T20:41:41.064Z,4.60
2022-10-18T20:44:14.969Z,4.53
2022-10-18T20:46:43.747Z,4.65
2022-10-18T20:49:14.527Z,5.20
2022-10-18T20:51:42.684Z,4.72
2022-10-18T20:54:11.749Z,4.13
2022-10-18T20:56:40.427Z,4.35
2022-10-18T20:59:11.415Z,4.35
2022-10-18T21:01:40.711Z,3.95
2022-10-18T21:04:10.648Z,4.20
2022-10-18T21:06:41.271Z,3.92
2022-10-18T21:09:12.200Z,4.90
2022-10-18T21:11:41.811Z,4.15
2022-10-18T21:14:14.395Z,5.03
2022-10-18T21:16:43.298Z,4.10
2022-10-18T21:19:13.484Z,4.53
2022-10-18T21:21:42.365Z,4.45
2022-10-18T21:24:10.363Z,4.00
2022-10-18T21:26:39.611Z,4.65
2022-10-18T21:29:08.204Z,4.32
2022-10-18T21:31:42.993Z,4.35
2022-10-18T21:34:13.946Z,4.18
2022-10-18T21:36:44.841Z,7.70
2022-10-18T21:39:18.024Z,5.00
2022-10-18T21:41:46.472Z,5.00
2022-10-18T21:44:15.293Z,4.55
2022-10-18T21:46:45.089Z,5.15
2022-10-18T21:49:13.627Z,4.63
2022-10-18T21:51:41.968Z,4.63
2022-10-18T21:54:13.188Z,4.30
2022-10-18T21:56:41.669Z,5.40
2022-10-18T21:59:11.808Z,5.13
2022-10-18T22:01:40.784Z,5.13
2022-10-18T22:04:19.734Z,5.47
2022-10-18T22:06:47.634Z,5.72
2022-10-18T22:09:15.916Z,5.45
2022-10-18T22:11:46.279Z,5.25
2022-10-18T22:14:14.290Z,5.18
2022-10-18T22:16:42.367Z,5.72
2022-10-18T22:19:12.434Z,5.43
2022-10-18T22:21:40.444Z,6.45
2022-10-18T22:24:10.064Z,6.15
2022-10-18T22:26:40.485Z,6.75
2022-10-18T22:29:11.551Z,6.65
2022-10-18T22:31:41.988Z,6.68
2022-10-18T22:34:17.681Z,7.13
2022-10-18T22:36:47.649Z,6.60
2022-10-18T22:39:16.834Z,6.25
2022-10-18T22:41:45.351Z,6.68
2022-10-18T22:44:14.582Z,7.60
2022-10-18T22:46:43.426Z,7.03
2022-10-18T22:49:13.533Z,6.65
2022-10-18T22:51:41.830Z,6.20
2022-10-18T22:54:10.050Z,6.60
2022-10-18T22:56:37.997Z,7.80
2022-10-18T22:59:06.110Z,7.35
2022-10-18T23:01:34.094Z,7.25
2022-10-18T23:04:02.597Z,7.13
2022-10-18T23:06:33.709Z,7.38
2022-10-18T23:09:04.962Z,7.32
2022-10-18T23:11:33.428Z,7.57
2022-10-18T23:14:03.600Z,7.13
2022-10-18T23:16:31.975Z,8.43
2022-10-18T23:19:00.353Z,7.63
2022-10-18T23:21:30.889Z,8.38
2022-10-18T23:24:00.153Z,8.95
2022-10-18T23:26:30.237Z,8.48
2022-10-18T23:28:58.235Z,9.05
2022-10-18T23:31:28.750Z,8.50
2022-10-18T23:33:57.879Z,9.60
2022-10-18T23:36:26.002Z,10.00
2022-10-18T23:38:54.385Z,10.48
2022-10-18T23:41:24.393Z,10.15
2022-10-18T23:43:52.591Z,9.65
2022-10-18T23:46:22.193Z,10.30
2022-10-18T23:48:52.921Z,9.95
2022-10-18T23:51:20.947Z,10.75
2022-10-18T23:53:48.911Z,9.52
2022-10-18T23:56:17.393Z,11.80
2022-10-18T23:58:46.776Z,10.93
